Shin Puropan Maru — JG5508 — position and weather

sailwx.info

Track history (hours):
 
Tides and Currents Weather Stations Pressure Air Temp Water Temp Dewpoint Dewpoint Depression Visibility Wind Speed Wind Dir Waves Ship Positions

Shin Puropan Maru

Last reported at 2017-Aug-17 18:52 UTC. Time now 2017-Aug-17 19:20 UTC.
Position N 34°13' E 135°00'.

Length 66 m; draft 4 m.

Type: Ship (hazmat cat A). MMSI: 431100348.

Date/timePositionNaut miles runAvg speedWind from/ knotsBaromVisibWave heightAir tempDewpointWater temp
2017-Aug-17 18:52N 34°13' E 135°00'411.9
2017-Aug-17 18:30N 34°09' E 135°00'10 0.3
2017-Aug-16 06:27N 33°59' E 135°01'912.1
2017-Aug-16 05:42N 34°08' E 134°60'2010.6
2017-Aug-16 03:51N 34°26' E 135°07'412.2
2017-Aug-16 03:30N 34°29' E 135°11'611.8
2017-Aug-16 03:00N 34°33' E 135°16'611.8
2017-Aug-16 02:30N 34°36' E 135°22'3 7.0
2017-Aug-16 02:00N 34°34' E 135°26'0 0.0
2017-Aug-15 22:59N 34°34' E 135°26'2 3.7
2017-Aug-15 22:30N 34°36' E 135°25'2 3.0
2017-Aug-15 21:57N 34°35' E 135°23'0 0.0
2017-Aug-15 20:33N 34°35' E 135°23'0 0.0
2017-Aug-15 20:27N 34°35' E 135°23'0 0.0
2017-Aug-15 19:57N 34°35' E 135°23'0 0.0
2017-Aug-15 19:15N 34°35' E 135°23'0 0.0
2017-Aug-15 17:44N 34°35' E 135°23'1 5.4
2017-Aug-15 17:29N 34°35' E 135°21'510.8
2017-Aug-15 17:00N 34°32' E 135°16'611.3
2017-Aug-15 16:30N 34°27' E 135°12'611.1
2017-Aug-15 16:00N 34°24' E 135°07'811.4
2017-Aug-15 15:19N 34°18' E 135°00'411.5
2017-Aug-15 14:59N 34°14' E 134°60'511.4
2017-Aug-15 14:30N 34°09' E 135°01'221 8.9
2017-Aug-14 13:44N 34°58' E 139°22'311.8
2017-Aug-14 13:28N 34°59' E 139°26'511.6
2017-Aug-14 13:00N 35°02' E 139°31'611.6
2017-Aug-14 12:30N 35°05' E 139°37'611.8
2017-Aug-14 12:00N 35°09' E 139°43'611.7
2017-Aug-14 11:30N 35°14' E 139°46'611.4
2017-Aug-14 11:00N 35°19' E 139°43'510.9
2017-Aug-14 10:30N 35°25' E 139°43'611.7
2017-Aug-14 10:00N 35°28' E 139°49'611.6
2017-Aug-14 09:30N 35°31' E 139°55'8 9.7
2017-Aug-14 08:40N 35°33' E 140°05'0 0.4
2017-Aug-14 08:30N 35°33' E 140°05'0 0.0
2017-Aug-14 04:42N 35°33' E 140°05'6 1.9
2017-Aug-14 01:47N 35°32' E 139°58'311.6
2017-Aug-14 01:30N 35°31' E 139°55'611.8
2017-Aug-14 01:00N 35°27' E 139°49'611.5
2017-Aug-14 00:30N 35°22' E 139°45'611.2
2017-Aug-14 00:00N 35°16' E 139°46'611.5
2017-Aug-13 23:30N 35°11' E 139°46'611.5
2017-Aug-13 23:00N 35°06' E 139°43'612.2
2017-Aug-13 22:30N 35°02' E 139°38'23510.8
2017-Aug-13 00:40N 34°07' E 134°59'212.8
2017-Aug-13 00:29N 34°09' E 134°59'2012.1
2017-Aug-12 22:51N 34°28' E 135°08'412.9
2017-Aug-12 22:30N 34°31' E 135°11'612.4
2017-Aug-12 22:00N 34°35' E 135°17'5 9.4
2017-Aug-12 21:30N 34°39' E 135°21'0 0.1
2017-Aug-12 21:00N 34°39' E 135°21'0 0.0
2017-Aug-12 20:30N 34°39' E 135°21'0 0.0
2017-Aug-12 20:00N 34°39' E 135°21'0 0.0
2017-Aug-12 19:30N 34°39' E 135°21'0 0.0
2017-Aug-12 19:00N 34°39' E 135°21'0 0.0
2017-Aug-12 18:30N 34°39' E 135°21'0 0.0
2017-Aug-12 18:00N 34°39' E 135°21'0 0.0
2017-Aug-12 17:30N 34°39' E 135°21'0 0.0
2017-Aug-12 17:00N 34°39' E 135°21'0 0.0
2017-Aug-12 16:30N 34°39' E 135°21'0 0.0
2017-Aug-12 16:00N 34°39' E 135°21'0 0.0
2017-Aug-12 15:30N 34°39' E 135°21'0 0.0
2017-Aug-12 15:00N 34°39' E 135°21'0 0.0
2017-Aug-12 14:30N 34°39' E 135°21'0 0.0
2017-Aug-12 14:00N 34°39' E 135°21'0 0.0
2017-Aug-12 13:30N 34°39' E 135°21'0 0.0
2017-Aug-12 13:00N 34°39' E 135°21'0 0.5
2017-Aug-12 12:30N 34°38' E 135°21'4 8.7
2017-Aug-12 12:00N 34°36' E 135°25'1 0.1
2017-Aug-12 01:05N 34°34' E 135°26'0 0.6
2017-Aug-12 01:00N 34°34' E 135°26'3 6.4
2017-Aug-12 00:29N 34°36' E 135°22'511.0
2017-Aug-12 00:00N 34°32' E 135°18'611.1
2017-Aug-11 23:30N 34°28' E 135°13'610.7
2017-Aug-11 22:59N 34°25' E 135°08'1210.2
2017-Aug-11 21:47N 34°15' E 134°59'310.4
2017-Aug-11 21:29N 34°11' E 135°00'510.4
2017-Aug-11 21:00N 34°06' E 135°01'7 0.2
2017-Aug-10 08:01N 33°60' E 135°01'012.3
2017-Aug-10 08:00N 33°60' E 135°01'712.2
2017-Aug-10 07:28N 34°07' E 134°60'613.2
2017-Aug-10 07:00N 34°12' E 134°59'1512.3
2017-Aug-10 05:47N 34°26' E 135°07'412.8
2017-Aug-10 05:31N 34°28' E 135°10'612.5
2017-Aug-10 05:00N 34°32' E 135°16'612.1
2017-Aug-10 04:30N 34°36' E 135°22'3 0.9
2017-Aug-10 00:51N 34°34' E 135°26'1 4.3
2017-Aug-10 00:30N 34°36' E 135°25'5 9.9
2017-Aug-10 00:00N 34°34' E 135°19'611.7
2017-Aug-09 23:30N 34°30' E 135°14'611.9
2017-Aug-09 22:59N 34°26' E 135°09'611.8
2017-Aug-09 22:29N 34°22' E 135°03'811.3
2017-Aug-09 21:45N 34°14' E 134°60'312.2
2017-Aug-09 21:30N 34°11' E 135°00'11 0.3
2017-Aug-08 06:41N 33°60' E 135°01'312.1
2017-Aug-08 06:27N 34°03' E 135°01'612.3
2017-Aug-08 06:00N 34°08' E 134°60'2112.5
2017-Aug-08 04:19N 34°29' E 135°06'2 8.0
2017-Aug-08 04:00N 34°29' E 135°09'610.0
2017-Aug-08 03:27N 34°29' E 135°15'  
Track history (hours):
 
Tides and Currents Weather Stations Pressure Air Temp Water Temp Dewpoint Dewpoint Depression Visibility Wind Speed Wind Dir Waves Ship Positions

Shin Puropan Maru

Last reported at 2017-Aug-17 18:52 UTC. Time now 2017-Aug-17 19:20 UTC.
Position N 34°13' E 135°00'.

Length 66 m; draft 4 m.

Type: Ship (hazmat cat A). MMSI: 431100348.

Date/timePositionNaut miles runAvg speedWind from/ knotsBaromVisibWave heightAir tempDewpointWater temp
2017-Aug-17 18:52N 34°13' E 135°00'411.9
2017-Aug-17 18:30N 34°09' E 135°00'10 0.3
2017-Aug-16 06:27N 33°59' E 135°01'912.1
2017-Aug-16 05:42N 34°08' E 134°60'2010.6
2017-Aug-16 03:51N 34°26' E 135°07'412.2
2017-Aug-16 03:30N 34°29' E 135°11'611.8
2017-Aug-16 03:00N 34°33' E 135°16'611.8
2017-Aug-16 02:30N 34°36' E 135°22'3 7.0
2017-Aug-16 02:00N 34°34' E 135°26'0 0.0
2017-Aug-15 22:59N 34°34' E 135°26'2 3.7
2017-Aug-15 22:30N 34°36' E 135°25'2 3.0
2017-Aug-15 21:57N 34°35' E 135°23'0 0.0
2017-Aug-15 20:33N 34°35' E 135°23'0 0.0
2017-Aug-15 20:27N 34°35' E 135°23'0 0.0
2017-Aug-15 19:57N 34°35' E 135°23'0 0.0
2017-Aug-15 19:15N 34°35' E 135°23'0 0.0
2017-Aug-15 17:44N 34°35' E 135°23'1 5.4
2017-Aug-15 17:29N 34°35' E 135°21'510.8
2017-Aug-15 17:00N 34°32' E 135°16'611.3
2017-Aug-15 16:30N 34°27' E 135°12'611.1
2017-Aug-15 16:00N 34°24' E 135°07'811.4
2017-Aug-15 15:19N 34°18' E 135°00'411.5
2017-Aug-15 14:59N 34°14' E 134°60'511.4
2017-Aug-15 14:30N 34°09' E 135°01'221 8.9
2017-Aug-14 13:44N 34°58' E 139°22'311.8
2017-Aug-14 13:28N 34°59' E 139°26'511.6
2017-Aug-14 13:00N 35°02' E 139°31'611.6
2017-Aug-14 12:30N 35°05' E 139°37'611.8
2017-Aug-14 12:00N 35°09' E 139°43'611.7
2017-Aug-14 11:30N 35°14' E 139°46'611.4
2017-Aug-14 11:00N 35°19' E 139°43'510.9
2017-Aug-14 10:30N 35°25' E 139°43'611.7
2017-Aug-14 10:00N 35°28' E 139°49'611.6
2017-Aug-14 09:30N 35°31' E 139°55'8 9.7
2017-Aug-14 08:40N 35°33' E 140°05'0 0.4
2017-Aug-14 08:30N 35°33' E 140°05'0 0.0
2017-Aug-14 04:42N 35°33' E 140°05'6 1.9
2017-Aug-14 01:47N 35°32' E 139°58'311.6
2017-Aug-14 01:30N 35°31' E 139°55'611.8
2017-Aug-14 01:00N 35°27' E 139°49'611.5
2017-Aug-14 00:30N 35°22' E 139°45'611.2
2017-Aug-14 00:00N 35°16' E 139°46'611.5
2017-Aug-13 23:30N 35°11' E 139°46'611.5
2017-Aug-13 23:00N 35°06' E 139°43'612.2
2017-Aug-13 22:30N 35°02' E 139°38'23510.8
2017-Aug-13 00:40N 34°07' E 134°59'212.8
2017-Aug-13 00:29N 34°09' E 134°59'2012.1
2017-Aug-12 22:51N 34°28' E 135°08'412.9
2017-Aug-12 22:30N 34°31' E 135°11'612.4
2017-Aug-12 22:00N 34°35' E 135°17'5 9.4
2017-Aug-12 21:30N 34°39' E 135°21'0 0.1
2017-Aug-12 21:00N 34°39' E 135°21'0 0.0
2017-Aug-12 20:30N 34°39' E 135°21'0 0.0
2017-Aug-12 20:00N 34°39' E 135°21'0 0.0
2017-Aug-12 19:30N 34°39' E 135°21'0 0.0
2017-Aug-12 19:00N 34°39' E 135°21'0 0.0
2017-Aug-12 18:30N 34°39' E 135°21'0 0.0
2017-Aug-12 18:00N 34°39' E 135°21'0 0.0
2017-Aug-12 17:30N 34°39' E 135°21'0 0.0
2017-Aug-12 17:00N 34°39' E 135°21'0 0.0
2017-Aug-12 16:30N 34°39' E 135°21'0 0.0
2017-Aug-12 16:00N 34°39' E 135°21'0 0.0
2017-Aug-12 15:30N 34°39' E 135°21'0 0.0
2017-Aug-12 15:00N 34°39' E 135°21'0 0.0
2017-Aug-12 14:30N 34°39' E 135°21'0 0.0
2017-Aug-12 14:00N 34°39' E 135°21'0 0.0
2017-Aug-12 13:30N 34°39' E 135°21'0 0.0
2017-Aug-12 13:00N 34°39' E 135°21'0 0.5
2017-Aug-12 12:30N 34°38' E 135°21'4 8.7
2017-Aug-12 12:00N 34°36' E 135°25'1 0.1
2017-Aug-12 01:05N 34°34' E 135°26'0 0.6
2017-Aug-12 01:00N 34°34' E 135°26'3 6.4
2017-Aug-12 00:29N 34°36' E 135°22'511.0
2017-Aug-12 00:00N 34°32' E 135°18'611.1
2017-Aug-11 23:30N 34°28' E 135°13'610.7
2017-Aug-11 22:59N 34°25' E 135°08'1210.2
2017-Aug-11 21:47N 34°15' E 134°59'310.4
2017-Aug-11 21:29N 34°11' E 135°00'510.4
2017-Aug-11 21:00N 34°06' E 135°01'7 0.2
2017-Aug-10 08:01N 33°60' E 135°01'012.3
2017-Aug-10 08:00N 33°60' E 135°01'712.2
2017-Aug-10 07:28N 34°07' E 134°60'613.2
2017-Aug-10 07:00N 34°12' E 134°59'1512.3
2017-Aug-10 05:47N 34°26' E 135°07'412.8
2017-Aug-10 05:31N 34°28' E 135°10'612.5
2017-Aug-10 05:00N 34°32' E 135°16'612.1
2017-Aug-10 04:30N 34°36' E 135°22'3 0.9
2017-Aug-10 00:51N 34°34' E 135°26'1 4.3
2017-Aug-10 00:30N 34°36' E 135°25'5 9.9
2017-Aug-10 00:00N 34°34' E 135°19'611.7
2017-Aug-09 23:30N 34°30' E 135°14'611.9
2017-Aug-09 22:59N 34°26' E 135°09'611.8
2017-Aug-09 22:29N 34°22' E 135°03'811.3
2017-Aug-09 21:45N 34°14' E 134°60'312.2
2017-Aug-09 21:30N 34°11' E 135°00'11 0.3
2017-Aug-08 06:41N 33°60' E 135°01'312.1
2017-Aug-08 06:27N 34°03' E 135°01'612.3
2017-Aug-08 06:00N 34°08' E 134°60'2112.5
2017-Aug-08 04:19N 34°29' E 135°06'2 8.0
2017-Aug-08 04:00N 34°29' E 135°09'610.0
2017-Aug-08 03:27N 34°29' E 135°15'  

Dump ship's entire track history